sensor_id;sensor_type;location;lat;lon;timestamp;P1;durP1;ratioP1;P2;durP2;ratioP2
80334;SDS011;69653;52.674;13.574;2023-04-24T11:59:43;5.13;;;1.20;;
80334;SDS011;69653;52.674;13.574;2023-04-24T12:02:09;2.63;;;0.90;;
80334;SDS011;69653;52.674;13.574;2023-04-24T12:04:45;2.85;;;1.10;;
80334;SDS011;69653;52.674;13.574;2023-04-24T12:07:10;3.27;;;1.20;;
80334;SDS011;69653;52.674;13.574;2023-04-24T12:09:46;2.75;;;1.10;;
80334;SDS011;69653;52.674;13.574;2023-04-24T12:12:15;3.00;;;1.15;;
80334;SDS011;69653;52.674;13.574;2023-04-24T12:14:46;2.72;;;1.00;;
80334;SDS011;69653;52.674;13.574;2023-04-24T12:17:13;2.65;;;1.00;;
80334;SDS011;69653;52.674;13.574;2023-04-24T12:19:44;3.53;;;1.17;;
80334;SDS011;69653;52.674;13.574;2023-04-24T12:22:10;3.67;;;1.15;;
80334;SDS011;69653;52.674;13.574;2023-04-24T12:24:54;4.23;;;1.10;;
80334;SDS011;69653;52.674;13.574;2023-04-24T12:27:21;4.90;;;1.10;;
80334;SDS011;69653;52.674;13.574;2023-04-24T12:29:53;3.15;;;1.10;;
80334;SDS011;69653;52.674;13.574;2023-04-24T12:32:21;2.17;;;1.00;;
80334;SDS011;69653;52.674;13.574;2023-04-24T12:34:46;2.70;;;1.00;;
80334;SDS011;69653;52.674;13.574;2023-04-24T12:37:12;2.87;;;1.10;;
80334;SDS011;69653;52.674;13.574;2023-04-24T12:39:37;3.30;;;1.10;;
80334;SDS011;69653;52.674;13.574;2023-04-24T12:42:02;2.75;;;1.08;;
80334;SDS011;69653;52.674;13.574;2023-04-24T12:44:28;2.43;;;1.10;;
80334;SDS011;69653;52.674;13.574;2023-04-24T12:46:59;3.05;;;1.10;;
80334;SDS011;69653;52.674;13.574;2023-04-24T12:49:25;2.47;;;0.98;;
80334;SDS011;69653;52.674;13.574;2023-04-24T12:51:50;2.95;;;0.98;;
80334;SDS011;69653;52.674;13.574;2023-04-24T12:54:16;3.00;;;1.60;;
80334;SDS011;69653;52.674;13.574;2023-04-24T12:56:41;2.57;;;1.07;;
80334;SDS011;69653;52.674;13.574;2023-04-24T12:59:06;3.00;;;1.13;;
80334;SDS011;69653;52.674;13.574;2023-04-24T13:01:31;2.47;;;0.97;;
80334;SDS011;69653;52.674;13.574;2023-04-24T13:03:57;2.53;;;1.10;;
80334;SDS011;69653;52.674;13.574;2023-04-24T13:06:22;2.30;;;0.80;;
80334;SDS011;69653;52.674;13.574;2023-04-24T13:08:47;4.63;;;1.97;;
80334;SDS011;69653;52.674;13.574;2023-04-24T13:11:13;2.33;;;1.10;;
80334;SDS011;69653;52.674;13.574;2023-04-24T13:13:39;2.33;;;0.90;;
80334;SDS011;69653;52.674;13.574;2023-04-24T13:16:04;2.88;;;0.95;;
80334;SDS011;69653;52.674;13.574;2023-04-24T13:18:30;2.40;;;1.02;;
80334;SDS011;69653;52.674;13.574;2023-04-24T13:20:55;2.55;;;1.10;;
80334;SDS011;69653;52.674;13.574;2023-04-24T13:23:20;2.80;;;1.20;;
80334;SDS011;69653;52.674;13.574;2023-04-24T13:25:47;3.10;;;1.10;;
80334;SDS011;69653;52.674;13.574;2023-04-24T13:28:13;2.57;;;0.90;;
80334;SDS011;69653;52.674;13.574;2023-04-24T13:30:38;2.43;;;0.97;;
80334;SDS011;69653;52.674;13.574;2023-04-24T13:33:03;2.77;;;1.00;;
80334;SDS011;69653;52.674;13.574;2023-04-24T13:35:29;2.77;;;1.10;;
80334;SDS011;69653;52.674;13.574;2023-04-24T13:37:54;3.25;;;1.10;;
80334;SDS011;69653;52.674;13.574;2023-04-24T13:40:19;3.07;;;1.27;;
80334;SDS011;69653;52.674;13.574;2023-04-24T13:42:44;3.83;;;1.27;;
80334;SDS011;69653;52.674;13.574;2023-04-24T13:45:10;4.03;;;1.30;;
80334;SDS011;69653;52.674;13.574;2023-04-24T13:47:36;2.45;;;1.13;;
80334;SDS011;69653;52.674;13.574;2023-04-24T13:50:01;2.73;;;1.23;;
80334;SDS011;69653;52.674;13.574;2023-04-24T13:52:27;3.10;;;1.08;;
80334;SDS011;69653;52.674;13.574;2023-04-24T13:54:52;3.00;;;1.37;;
80334;SDS011;69653;52.674;13.574;2023-04-24T13:57:17;1.70;;;0.70;;
80334;SDS011;69653;52.674;13.574;2023-04-24T14:22:35;2.30;;;1.10;;
80334;SDS011;69653;52.674;13.574;2023-04-24T14:25:04;3.30;;;1.10;;
80334;SDS011;69653;52.674;13.574;2023-04-24T14:27:42;2.30;;;0.95;;
80334;SDS011;69653;52.674;13.574;2023-04-24T14:30:22;2.70;;;1.27;;
80334;SDS011;69653;52.674;13.574;2023-04-24T14:32:59;2.70;;;1.23;;
80334;SDS011;69653;52.674;13.574;2023-04-24T14:35:33;3.97;;;1.02;;
80334;SDS011;69653;52.674;13.574;2023-04-24T14:38:10;2.78;;;1.20;;
80334;SDS011;69653;52.674;13.574;2023-04-24T14:40:39;2.45;;;1.10;;
80334;SDS011;69653;52.674;13.574;2023-04-24T14:43:06;3.17;;;1.42;;
80334;SDS011;69653;52.674;13.574;2023-04-24T14:45:36;3.45;;;1.77;;
80334;SDS011;69653;52.674;13.574;2023-04-24T14:48:06;6.13;;;1.08;;
80334;SDS011;69653;52.674;13.574;2023-04-24T14:50:33;4.57;;;1.10;;
80334;SDS011;69653;52.674;13.574;2023-04-24T14:52:59;2.80;;;1.00;;
80334;SDS011;69653;52.674;13.574;2023-04-24T14:55:29;2.38;;;1.30;;
80334;SDS011;69653;52.674;13.574;2023-04-24T14:57:57;2.90;;;1.10;;
80334;SDS011;69653;52.674;13.574;2023-04-24T15:00:27;2.63;;;1.13;;
80334;SDS011;69653;52.674;13.574;2023-04-24T15:03:07;3.30;;;1.10;;
80334;SDS011;69653;52.674;13.574;2023-04-24T15:05:36;3.13;;;1.13;;
80334;SDS011;69653;52.674;13.574;2023-04-24T15:08:13;3.25;;;1.15;;
80334;SDS011;69653;52.674;13.574;2023-04-24T15:10:44;3.65;;;1.58;;
80334;SDS011;69653;52.674;13.574;2023-04-24T15:13:15;3.55;;;1.00;;
80334;SDS011;69653;52.674;13.574;2023-04-24T15:15:46;2.97;;;1.20;;
80334;SDS011;69653;52.674;13.574;2023-04-24T15:18:12;2.33;;;1.20;;
80334;SDS011;69653;52.674;13.574;2023-04-24T15:20:39;3.60;;;1.10;;
80334;SDS011;69653;52.674;13.574;2023-04-24T15:23:07;2.28;;;1.05;;
80334;SDS011;69653;52.674;13.574;2023-04-24T15:25:42;5.10;;;1.25;;
80334;SDS011;69653;52.674;13.574;2023-04-24T15:31:20;2.60;;;1.23;;
80334;SDS011;69653;52.674;13.574;2023-04-24T15:34:25;3.70;;;1.85;;
80334;SDS011;69653;52.674;13.574;2023-04-24T15:36:51;3.88;;;1.40;;
80334;SDS011;69653;52.674;13.574;2023-04-24T15:39:17;2.50;;;1.17;;
80334;SDS011;69653;52.674;13.574;2023-04-24T15:41:46;3.80;;;1.40;;
80334;SDS011;69653;52.674;13.574;2023-04-24T15:44:16;2.60;;;1.08;;
80334;SDS011;69653;52.674;13.574;2023-04-24T15:46:43;2.92;;;1.40;;
80334;SDS011;69653;52.674;13.574;2023-04-24T15:49:16;4.88;;;1.60;;
80334;SDS011;69653;52.674;13.574;2023-04-24T15:51:46;4.47;;;1.10;;
80334;SDS011;69653;52.674;13.574;2023-04-24T15:54:16;3.35;;;1.30;;
80334;SDS011;69653;52.674;13.574;2023-04-24T15:56:43;3.22;;;1.15;;
80334;SDS011;69653;52.674;13.574;2023-04-24T15:59:10;2.60;;;1.10;;
80334;SDS011;69653;52.674;13.574;2023-04-24T16:01:36;2.47;;;1.30;;
80334;SDS011;69653;52.674;13.574;2023-04-24T16:04:02;2.38;;;1.08;;
80334;SDS011;69653;52.674;13.574;2023-04-24T16:06:29;3.70;;;1.42;;
80334;SDS011;69653;52.674;13.574;2023-04-24T16:08:56;4.35;;;1.52;;
80334;SDS011;69653;52.674;13.574;2023-04-24T16:11:22;3.40;;;1.60;;
80334;SDS011;69653;52.674;13.574;2023-04-24T16:13:49;3.42;;;1.48;;
80334;SDS011;69653;52.674;13.574;2023-04-24T16:16:16;4.05;;;1.58;;
80334;SDS011;69653;52.674;13.574;2023-04-24T16:18:43;3.40;;;1.40;;
80334;SDS011;69653;52.674;13.574;2023-04-24T16:21:09;3.33;;;1.30;;
80334;SDS011;69653;52.674;13.574;2023-04-24T16:23:36;3.05;;;1.30;;
80334;SDS011;69653;52.674;13.574;2023-04-24T16:26:02;2.83;;;1.52;;
80334;SDS011;69653;52.674;13.574;2023-04-24T16:28:29;2.47;;;1.13;;
80334;SDS011;69653;52.674;13.574;2023-04-24T16:30:55;3.00;;;1.38;;
80334;SDS011;69653;52.674;13.574;2023-04-24T16:33:20;6.37;;;2.13;;
80334;SDS011;69653;52.674;13.574;2023-04-24T16:35:45;3.60;;;1.30;;
80334;SDS011;69653;52.674;13.574;2023-04-24T16:38:11;3.00;;;1.40;;
80334;SDS011;69653;52.674;13.574;2023-04-24T16:40:36;3.63;;;1.40;;
80334;SDS011;69653;52.674;13.574;2023-04-24T16:43:02;4.60;;;1.40;;
80334;SDS011;69653;52.674;13.574;2023-04-24T16:45:27;2.75;;;1.58;;
80334;SDS011;69653;52.674;13.574;2023-04-24T16:47:52;3.17;;;1.20;;
80334;SDS011;69653;52.674;13.574;2023-04-24T16:50:18;3.10;;;1.40;;
80334;SDS011;69653;52.674;13.574;2023-04-24T16:52:43;3.63;;;1.50;;
80334;SDS011;69653;52.674;13.574;2023-04-24T16:55:08;4.37;;;1.53;;
80334;SDS011;69653;52.674;13.574;2023-04-24T16:57:34;2.53;;;1.33;;
80334;SDS011;69653;52.674;13.574;2023-04-24T17:00:00;2.63;;;1.30;;
80334;SDS011;69653;52.674;13.574;2023-04-24T17:02:25;3.40;;;1.40;;
80334;SDS011;69653;52.674;13.574;2023-04-24T17:04:50;5.63;;;1.40;;
80334;SDS011;69653;52.674;13.574;2023-04-24T17:07:15;3.87;;;1.73;;
80334;SDS011;69653;52.674;13.574;2023-04-24T17:09:41;7.55;;;3.25;;
80334;SDS011;69653;52.674;13.574;2023-04-24T17:12:07;4.85;;;1.92;;
80334;SDS011;69653;52.674;13.574;2023-04-24T17:14:32;4.23;;;1.30;;
80334;SDS011;69653;52.674;13.574;2023-04-24T17:16:57;7.53;;;3.33;;
80334;SDS011;69653;52.674;13.574;2023-04-24T17:19:23;4.60;;;1.87;;
80334;SDS011;69653;52.674;13.574;2023-04-24T17:21:49;4.75;;;1.52;;
80334;SDS011;69653;52.674;13.574;2023-04-24T17:24:15;3.13;;;1.37;;
80334;SDS011;69653;52.674;13.574;2023-04-24T17:26:40;3.70;;;1.43;;
80334;SDS011;69653;52.674;13.574;2023-04-24T17:29:05;3.80;;;1.80;;
80334;SDS011;69653;52.674;13.574;2023-04-24T17:31:31;3.47;;;1.50;;
80334;SDS011;69653;52.674;13.574;2023-04-24T17:33:56;3.77;;;1.30;;
80334;SDS011;69653;52.674;13.574;2023-04-24T17:36:23;3.30;;;1.52;;
80334;SDS011;69653;52.674;13.574;2023-04-24T17:38:48;3.10;;;1.60;;
80334;SDS011;69653;52.674;13.574;2023-04-24T17:41:13;4.07;;;1.50;;
80334;SDS011;69653;52.674;13.574;2023-04-24T17:43:40;2.97;;;1.50;;
80334;SDS011;69653;52.674;13.574;2023-04-24T17:46:06;7.20;;;3.58;;
80334;SDS011;69653;52.674;13.574;2023-04-24T17:48:32;2.97;;;1.50;;
80334;SDS011;69653;52.674;13.574;2023-04-24T17:50:58;3.78;;;1.58;;
80334;SDS011;69653;52.674;13.574;2023-04-24T17:53:24;3.27;;;1.50;;
80334;SDS011;69653;52.674;13.574;2023-04-24T17:55:49;3.57;;;1.50;;
80334;SDS011;69653;52.674;13.574;2023-04-24T17:58:14;2.97;;;1.42;;
80334;SDS011;69653;52.674;13.574;2023-04-24T18:00:40;3.80;;;1.42;;
80334;SDS011;69653;52.674;13.574;2023-04-24T18:03:07;2.90;;;1.27;;
80334;SDS011;69653;52.674;13.574;2023-04-24T18:05:33;3.15;;;1.30;;
80334;SDS011;69653;52.674;13.574;2023-04-24T18:07:59;3.17;;;1.48;;
80334;SDS011;69653;52.674;13.574;2023-04-24T18:10:28;3.20;;;1.48;;
80334;SDS011;69653;52.674;13.574;2023-04-24T18:12:55;2.88;;;1.30;;
80334;SDS011;69653;52.674;13.574;2023-04-24T18:17:46;3.38;;;1.27;;
80334;SDS011;69653;52.674;13.574;2023-04-24T18:20:12;2.92;;;1.23;;
80334;SDS011;69653;52.674;13.574;2023-04-24T18:22:39;3.88;;;1.55;;
80334;SDS011;69653;52.674;13.574;2023-04-24T18:25:05;4.07;;;1.20;;
80334;SDS011;69653;52.674;13.574;2023-04-24T18:27:30;2.90;;;1.25;;
80334;SDS011;69653;52.674;13.574;2023-04-24T18:29:56;3.73;;;1.30;;
80334;SDS011;69653;52.674;13.574;2023-04-24T18:32:22;2.80;;;1.10;;
80334;SDS011;69653;52.674;13.574;2023-04-24T18:34:48;3.17;;;1.13;;
80334;SDS011;69653;52.674;13.574;2023-04-24T18:37:13;1.70;;;0.75;;
80334;SDS011;69653;52.674;13.574;2023-04-24T18:39:38;2.63;;;1.37;;
80334;SDS011;69653;52.674;13.574;2023-04-24T18:42:04;2.05;;;0.77;;
80334;SDS011;69653;52.674;13.574;2023-04-24T18:44:29;1.30;;;0.53;;
80334;SDS011;69653;52.674;13.574;2023-04-24T18:46:55;2.50;;;0.73;;
80334;SDS011;69653;52.674;13.574;2023-04-24T18:49:20;3.58;;;0.75;;
80334;SDS011;69653;52.674;13.574;2023-04-24T18:51:46;5.10;;;1.60;;
80334;SDS011;69653;52.674;13.574;2023-04-24T18:54:11;2.00;;;0.77;;
80334;SDS011;69653;52.674;13.574;2023-04-24T18:56:36;2.47;;;1.03;;
80334;SDS011;69653;52.674;13.574;2023-04-24T18:59:02;1.67;;;0.53;;
80334;SDS011;69653;52.674;13.574;2023-04-24T19:01:27;2.30;;;0.60;;
80334;SDS011;69653;52.674;13.574;2023-04-24T19:03:57;1.73;;;0.60;;
80334;SDS011;69653;52.674;13.574;2023-04-24T19:06:23;1.48;;;0.65;;
80334;SDS011;69653;52.674;13.574;2023-04-24T19:08:48;2.90;;;0.70;;
80334;SDS011;69653;52.674;13.574;2023-04-24T19:11:14;1.55;;;0.68;;
80334;SDS011;69653;52.674;13.574;2023-04-24T19:13:40;2.63;;;0.98;;
80334;SDS011;69653;52.674;13.574;2023-04-24T19:16:05;3.25;;;0.60;;
80334;SDS011;69653;52.674;13.574;2023-04-24T19:18:31;2.80;;;0.73;;
80334;SDS011;69653;52.674;13.574;2023-04-24T19:20:56;1.60;;;0.87;;
80334;SDS011;69653;52.674;13.574;2023-04-24T19:23:23;1.67;;;0.75;;
80334;SDS011;69653;52.674;13.574;2023-04-24T19:25:49;1.85;;;0.75;;
80334;SDS011;69653;52.674;13.574;2023-04-24T19:28:14;1.97;;;0.70;;
80334;SDS011;69653;52.674;13.574;2023-04-24T19:30:40;1.87;;;0.90;;
80334;SDS011;69653;52.674;13.574;2023-04-24T19:33:05;2.20;;;0.93;;
80334;SDS011;69653;52.674;13.574;2023-04-24T19:35:31;3.27;;;0.80;;
80334;SDS011;69653;52.674;13.574;2023-04-24T19:37:58;3.25;;;0.90;;
80334;SDS011;69653;52.674;13.574;2023-04-24T19:40:24;2.35;;;0.82;;
80334;SDS011;69653;52.674;13.574;2023-04-24T19:42:49;1.83;;;0.70;;
80334;SDS011;69653;52.674;13.574;2023-04-24T19:45:15;2.20;;;0.83;;
80334;SDS011;69653;52.674;13.574;2023-04-24T19:47:40;2.20;;;0.70;;
80334;SDS011;69653;52.674;13.574;2023-04-24T19:50:06;2.20;;;0.80;;
80334;SDS011;69653;52.674;13.574;2023-04-24T19:52:31;3.70;;;1.42;;
80334;SDS011;69653;52.674;13.574;2023-04-24T19:54:57;3.77;;;1.30;;
80334;SDS011;69653;52.674;13.574;2023-04-24T19:57:22;5.23;;;2.40;;
80334;SDS011;69653;52.674;13.574;2023-04-24T19:59:47;7.27;;;2.67;;
80334;SDS011;69653;52.674;13.574;2023-04-24T20:02:13;5.07;;;1.67;;
80334;SDS011;69653;52.674;13.574;2023-04-24T20:04:38;3.60;;;1.40;;
80334;SDS011;69653;52.674;13.574;2023-04-24T20:07:03;3.90;;;1.30;;
80334;SDS011;69653;52.674;13.574;2023-04-24T20:09:29;6.57;;;2.90;;
80334;SDS011;69653;52.674;13.574;2023-04-24T20:11:54;3.03;;;1.37;;
80334;SDS011;69653;52.674;13.574;2023-04-24T20:14:21;2.65;;;1.20;;
80334;SDS011;69653;52.674;13.574;2023-04-24T20:16:46;2.70;;;1.30;;
80334;SDS011;69653;52.674;13.574;2023-04-24T20:19:11;2.70;;;1.27;;
80334;SDS011;69653;52.674;13.574;2023-04-24T20:21:36;3.20;;;1.20;;
80334;SDS011;69653;52.674;13.574;2023-04-24T20:24:02;3.38;;;1.13;;
80334;SDS011;69653;52.674;13.574;2023-04-24T20:26:28;3.60;;;1.50;;
80334;SDS011;69653;52.674;13.574;2023-04-24T20:28:53;3.03;;;1.20;;
80334;SDS011;69653;52.674;13.574;2023-04-24T20:31:19;2.70;;;1.17;;
80334;SDS011;69653;52.674;13.574;2023-04-24T20:33:44;4.80;;;1.27;;
80334;SDS011;69653;52.674;13.574;2023-04-24T20:36:10;2.67;;;1.23;;
80334;SDS011;69653;52.674;13.574;2023-04-24T20:38:35;3.83;;;1.30;;
80334;SDS011;69653;52.674;13.574;2023-04-24T20:41:01;4.28;;;1.42;;
80334;SDS011;69653;52.674;13.574;2023-04-24T20:43:27;3.47;;;1.42;;
80334;SDS011;69653;52.674;13.574;2023-04-24T20:45:53;2.93;;;1.30;;
80334;SDS011;69653;52.674;13.574;2023-04-24T20:48:18;3.17;;;1.30;;
80334;SDS011;69653;52.674;13.574;2023-04-24T20:50:43;3.53;;;1.40;;
80334;SDS011;69653;52.674;13.574;2023-04-24T20:53:09;2.77;;;1.40;;
80334;SDS011;69653;52.674;13.574;2023-04-24T20:55:34;3.40;;;1.40;;
80334;SDS011;69653;52.674;13.574;2023-04-24T20:58:00;3.08;;;1.42;;
80334;SDS011;69653;52.674;13.574;2023-04-24T21:00:26;3.50;;;1.45;;
80334;SDS011;69653;52.674;13.574;2023-04-24T21:02:53;3.88;;;1.55;;
80334;SDS011;69653;52.674;13.574;2023-04-24T21:05:18;4.45;;;1.40;;
80334;SDS011;69653;52.674;13.574;2023-04-24T21:07:43;3.63;;;1.20;;
80334;SDS011;69653;52.674;13.574;2023-04-24T21:10:09;4.35;;;1.48;;
80334;SDS011;69653;52.674;13.574;2023-04-24T21:12:36;3.65;;;1.52;;
80334;SDS011;69653;52.674;13.574;2023-04-24T21:15:02;4.47;;;1.60;;
80334;SDS011;69653;52.674;13.574;2023-04-24T21:17:27;3.38;;;1.50;;
80334;SDS011;69653;52.674;13.574;2023-04-24T21:19:52;5.37;;;1.80;;
80334;SDS011;69653;52.674;13.574;2023-04-24T21:22:20;3.75;;;1.70;;
80334;SDS011;69653;52.674;13.574;2023-04-24T21:24:46;5.18;;;2.00;;
80334;SDS011;69653;52.674;13.574;2023-04-24T21:27:11;3.90;;;1.80;;
80334;SDS011;69653;52.674;13.574;2023-04-24T21:29:37;7.55;;;1.90;;
80334;SDS011;69653;52.674;13.574;2023-04-24T21:32:02;5.82;;;1.73;;
80334;SDS011;69653;52.674;13.574;2023-04-24T21:34:28;5.28;;;1.98;;
80334;SDS011;69653;52.674;13.574;2023-04-24T21:36:53;4.70;;;2.00;;
80334;SDS011;69653;52.674;13.574;2023-04-24T21:39:19;5.55;;;2.03;;
80334;SDS011;69653;52.674;13.574;2023-04-24T21:41:45;3.63;;;1.52;;
80334;SDS011;69653;52.674;13.574;2023-04-24T21:44:11;5.15;;;1.83;;
80334;SDS011;69653;52.674;13.574;2023-04-24T21:46:36;5.43;;;2.00;;
80334;SDS011;69653;52.674;13.574;2023-04-24T21:49:01;3.73;;;2.00;;
80334;SDS011;69653;52.674;13.574;2023-04-24T21:51:27;4.53;;;2.00;;
80334;SDS011;69653;52.674;13.574;2023-04-24T21:53:52;6.87;;;2.30;;
80334;SDS011;69653;52.674;13.574;2023-04-24T21:56:17;5.27;;;2.07;;
80334;SDS011;69653;52.674;13.574;2023-04-24T21:58:43;5.80;;;2.17;;
80334;SDS011;69653;52.674;13.574;2023-04-24T22:01:09;7.63;;;2.85;;
80334;SDS011;69653;52.674;13.574;2023-04-24T22:03:35;9.52;;;3.05;;
80334;SDS011;69653;52.674;13.574;2023-04-24T22:06:01;4.75;;;2.17;;
80334;SDS011;69653;52.674;13.574;2023-04-24T22:08:26;3.73;;;1.97;;
80334;SDS011;69653;52.674;13.574;2023-04-24T22:10:52;3.80;;;2.10;;
80334;SDS011;69653;52.674;13.574;2023-04-24T22:13:18;4.65;;;2.20;;
80334;SDS011;69653;52.674;13.574;2023-04-24T22:15:43;6.85;;;2.33;;
80334;SDS011;69653;52.674;13.574;2023-04-24T22:18:09;7.85;;;2.47;;
80334;SDS011;69653;52.674;13.574;2023-04-24T22:20:35;6.72;;;2.40;;
80334;SDS011;69653;52.674;13.574;2023-04-24T22:23:01;4.90;;;2.33;;
80334;SDS011;69653;52.674;13.574;2023-04-24T22:25:27;4.32;;;2.70;;
80334;SDS011;69653;52.674;13.574;2023-04-24T22:27:53;5.13;;;2.23;;
80334;SDS011;69653;52.674;13.574;2023-04-24T22:30:18;5.80;;;2.60;;
80334;SDS011;69653;52.674;13.574;2023-04-24T22:32:43;5.20;;;2.37;;
80334;SDS011;69653;52.674;13.574;2023-04-24T22:35:09;6.35;;;2.53;;
80334;SDS011;69653;52.674;13.574;2023-04-24T22:37:34;5.72;;;2.55;;
80334;SDS011;69653;52.674;13.574;2023-04-24T22:40:00;5.32;;;2.03;;
80334;SDS011;69653;52.674;13.574;2023-04-24T22:42:26;6.10;;;3.05;;
80334;SDS011;69653;52.674;13.574;2023-04-24T22:44:52;4.90;;;2.67;;
80334;SDS011;69653;52.674;13.574;2023-04-24T22:47:18;6.97;;;3.00;;
80334;SDS011;69653;52.674;13.574;2023-04-24T22:49:44;5.70;;;2.85;;
80334;SDS011;69653;52.674;13.574;2023-04-24T22:52:10;4.72;;;2.50;;
80334;SDS011;69653;52.674;13.574;2023-04-24T22:54:37;6.88;;;3.72;;
80334;SDS011;69653;52.674;13.574;2023-04-24T22:57:03;7.40;;;3.15;;
80334;SDS011;69653;52.674;13.574;2023-04-24T22:59:28;6.88;;;3.35;;
80334;SDS011;69653;52.674;13.574;2023-04-24T23:01:54;7.90;;;3.80;;
80334;SDS011;69653;52.674;13.574;2023-04-24T23:04:19;5.70;;;3.15;;
80334;SDS011;69653;52.674;13.574;2023-04-24T23:06:45;6.32;;;2.88;;
80334;SDS011;69653;52.674;13.574;2023-04-24T23:09:11;5.20;;;2.72;;
80334;SDS011;69653;52.674;13.574;2023-04-24T23:11:36;6.17;;;3.20;;
80334;SDS011;69653;52.674;13.574;2023-04-24T23:14:01;7.63;;;3.00;;
80334;SDS011;69653;52.674;13.574;2023-04-24T23:16:27;5.00;;;2.50;;
80334;SDS011;69653;52.674;13.574;2023-04-24T23:18:54;5.07;;;2.53;;
80334;SDS011;69653;52.674;13.574;2023-04-24T23:21:20;7.00;;;2.92;;
80334;SDS011;69653;52.674;13.574;2023-04-24T23:23:46;6.35;;;2.65;;
80334;SDS011;69653;52.674;13.574;2023-04-24T23:26:14;5.25;;;2.40;;
80334;SDS011;69653;52.674;13.574;2023-04-24T23:28:39;6.05;;;3.20;;
80334;SDS011;69653;52.674;13.574;2023-04-24T23:31:05;5.93;;;2.80;;
80334;SDS011;69653;52.674;13.574;2023-04-24T23:33:31;5.20;;;2.00;;
80334;SDS011;69653;52.674;13.574;2023-04-24T23:35:56;4.87;;;2.33;;
80334;SDS011;69653;52.674;13.574;2023-04-24T23:38:22;4.80;;;2.45;;
80334;SDS011;69653;52.674;13.574;2023-04-24T23:40:47;4.88;;;2.63;;
80334;SDS011;69653;52.674;13.574;2023-04-24T23:43:15;8.40;;;3.00;;
80334;SDS011;69653;52.674;13.574;2023-04-24T23:45:41;5.38;;;2.70;;
80334;SDS011;69653;52.674;13.574;2023-04-24T23:48:06;6.40;;;3.10;;
80334;SDS011;69653;52.674;13.574;2023-04-24T23:50:32;6.63;;;3.03;;
80334;SDS011;69653;52.674;13.574;2023-04-24T23:52:57;5.50;;;3.33;;
80334;SDS011;69653;52.674;13.574;2023-04-24T23:55:23;6.07;;;2.92;;
80334;SDS011;69653;52.674;13.574;2023-04-24T23:57:48;6.25;;;3.13;;
